createdAt,value
2018-07-08T00:01:07.235Z,99.9
2018-07-08T00:02:15.142Z,99.9
2018-07-08T00:03:23.025Z,99.9
2018-07-08T00:04:30.916Z,99.9
2018-07-08T00:05:38.817Z,99.9
2018-07-08T00:06:46.709Z,99.9
2018-07-08T00:07:54.600Z,99.9
2018-07-08T00:09:02.215Z,99.9
2018-07-08T00:10:09.552Z,99.9
2018-07-08T00:11:17.166Z,99.9
2018-07-08T00:12:25.064Z,99.9
2018-07-08T00:13:32.946Z,99.9
2018-07-08T00:14:40.836Z,99.9
2018-07-08T00:15:48.730Z,99.9
2018-07-08T00:16:56.641Z,99.9
2018-07-08T00:18:04.527Z,99.9
2018-07-08T00:19:12.409Z,99.9
2018-07-08T00:20:20.534Z,99.9
2018-07-08T00:21:28.417Z,99.9
2018-07-08T00:22:36.312Z,99.9
2018-07-08T00:23:44.196Z,99.9
2018-07-08T00:24:52.107Z,99.9
2018-07-08T00:26:00.006Z,99.9
2018-07-08T00:27:08.120Z,99.9
2018-07-08T00:28:16.023Z,99.9
2018-07-08T00:29:23.636Z,99.9
2018-07-08T00:30:31.524Z,99.9
2018-07-08T00:31:39.417Z,99.9
2018-07-08T00:32:47.304Z,99.9
2018-07-08T00:33:55.424Z,99.9
2018-07-08T00:35:03.317Z,99.9
2018-07-08T00:36:11.255Z,99.9
2018-07-08T00:37:19.143Z,99.9
2018-07-08T00:38:27.035Z,99.9
2018-07-08T00:39:34.941Z,99.9
2018-07-08T00:40:42.554Z,99.9
2018-07-08T00:41:50.454Z,99.9
2018-07-08T00:42:58.356Z,99.9
2018-07-08T00:44:06.249Z,99.9
2018-07-08T00:45:14.375Z,99.9
2018-07-08T00:46:22.283Z,99.9
2018-07-08T00:47:30.186Z,99.9
2018-07-08T00:48:38.077Z,99.9
2018-07-08T00:49:45.992Z,99.9
2018-07-08T00:50:53.892Z,99.9
2018-07-08T00:52:01.742Z,99.9
2018-07-08T00:53:09.624Z,99.9
2018-07-08T00:54:17.509Z,99.9
2018-07-08T00:55:25.398Z,99.9
2018-07-08T00:56:33.288Z,99.9
2018-07-08T00:57:41.194Z,99.9
2018-07-08T00:58:49.080Z,99.9
2018-07-08T00:59:56.968Z,99.9
2018-07-08T01:01:04.598Z,99.9
2018-07-08T01:02:12.488Z,99.9
2018-07-08T01:03:20.650Z,99.9
2018-07-08T01:04:28.574Z,99.9
2018-07-08T01:05:36.675Z,99.9
2018-07-08T01:06:44.286Z,99.9
2018-07-08T01:07:51.909Z,99.9
2018-07-08T01:08:59.799Z,99.9
2018-07-08T01:10:07.916Z,99.9
2018-07-08T01:11:16.356Z,99.9
2018-07-08T01:12:24.252Z,99.9
2018-07-08T01:13:32.131Z,99.9
2018-07-08T01:14:39.755Z,99.9
2018-07-08T01:15:47.642Z,99.9
2018-07-08T01:16:55.528Z,99.9
2018-07-08T01:18:03.421Z,99.9
2018-07-08T01:19:11.310Z,99.9
2018-07-08T01:20:19.193Z,99.9
2018-07-08T01:21:27.082Z,99.9
2018-07-08T01:22:34.974Z,99.9
2018-07-08T01:23:42.856Z,99.9
2018-07-08T01:24:50.765Z,99.9
2018-07-08T01:25:58.648Z,99.9
2018-07-08T01:27:06.541Z,99.9
2018-07-08T01:28:14.156Z,99.9
2018-07-08T01:29:22.062Z,99.9
2018-07-08T01:30:29.949Z,99.9
2018-07-08T01:31:37.282Z,99.9
2018-07-08T01:32:45.182Z,99.9
2018-07-08T01:33:53.065Z,99.9
2018-07-08T01:35:00.959Z,99.9
2018-07-08T01:36:08.850Z,99.9
2018-07-08T01:37:16.740Z,99.9
2018-07-08T01:38:24.626Z,99.9
2018-07-08T01:39:32.513Z,99.9
2018-07-08T01:40:40.400Z,99.9
2018-07-08T01:41:48.296Z,99.9
2018-07-08T01:42:56.179Z,99.9
2018-07-08T01:45:42.559Z,99.9
2018-07-08T01:46:50.461Z,99.9
2018-07-08T01:47:58.351Z,99.9
2018-07-08T01:49:06.247Z,99.9
2018-07-08T01:50:14.136Z,99.9
2018-07-08T01:51:21.768Z,99.9
2018-07-08T01:52:29.658Z,99.9
2018-07-08T01:53:37.776Z,99.9
2018-07-08T01:54:45.665Z,99.9
2018-07-08T01:55:53.784Z,99.9
2018-07-08T01:57:01.404Z,99.9
2018-07-08T01:58:09.285Z,99.9
2018-07-08T01:59:17.169Z,99.9
2018-07-08T02:00:25.069Z,99.9
2018-07-08T02:01:32.952Z,99.9
2018-07-08T02:02:40.839Z,99.9
2018-07-08T02:03:48.452Z,99.9
2018-07-08T02:04:56.354Z,99.9
2018-07-08T02:06:04.243Z,99.9
2018-07-08T02:07:12.132Z,99.9
2018-07-08T02:08:20.021Z,99.9
2018-07-08T02:09:27.906Z,99.9
2018-07-08T02:10:35.801Z,99.9
2018-07-08T02:11:43.408Z,99.9
2018-07-08T02:12:51.498Z,99.9
2018-07-08T02:13:59.386Z,99.9
2018-07-08T02:15:07.280Z,99.9
2018-07-08T02:16:14.893Z,99.9
2018-07-08T02:17:22.780Z,99.9
2018-07-08T02:18:30.686Z,99.9
2018-07-08T02:19:38.570Z,99.9
2018-07-08T02:20:46.460Z,99.9
2018-07-08T02:21:54.079Z,99.9
2018-07-08T02:23:01.983Z,99.9
2018-07-08T02:24:09.867Z,99.9
2018-07-08T02:25:17.757Z,99.9
2018-07-08T02:26:25.643Z,99.9
2018-07-08T02:27:33.251Z,99.9
2018-07-08T02:28:41.137Z,99.9
2018-07-08T02:29:49.157Z,99.9
2018-07-08T02:30:57.036Z,99.9
2018-07-08T02:32:04.930Z,99.9
2018-07-08T02:33:12.555Z,99.9
2018-07-08T02:34:20.904Z,99.9
2018-07-08T02:35:29.031Z,99.9
2018-07-08T02:36:36.920Z,99.9
2018-07-08T02:37:44.800Z,99.9
2018-07-08T02:38:52.691Z,99.9
2018-07-08T02:40:00.581Z,99.9
2018-07-08T02:41:08.201Z,99.9
2018-07-08T02:42:16.105Z,99.9
2018-07-08T02:43:23.992Z,99.9
2018-07-08T02:44:31.357Z,99.9
2018-07-08T02:45:39.244Z,99.9
2018-07-08T02:46:47.150Z,99.9
2018-07-08T02:47:55.040Z,99.9
2018-07-08T02:49:02.931Z,99.9
2018-07-08T02:50:10.829Z,99.9
2018-07-08T02:51:18.442Z,99.9
2018-07-08T02:52:26.324Z,99.9
2018-07-08T02:53:34.207Z,99.9
2018-07-08T02:54:41.821Z,99.9
2018-07-08T02:55:49.712Z,99.9
2018-07-08T02:56:57.592Z,99.9
2018-07-08T02:58:05.215Z,99.9
2018-07-08T02:59:13.105Z,99.9
2018-07-08T03:00:20.997Z,99.9
2018-07-08T03:01:28.883Z,99.9
2018-07-08T03:02:36.772Z,99.9
2018-07-08T03:03:44.659Z,99.9
2018-07-08T03:04:52.556Z,99.9
2018-07-08T03:06:00.437Z,99.9
2018-07-08T03:07:08.325Z,99.9
2018-07-08T03:08:16.218Z,99.9
2018-07-08T03:09:24.103Z,99.9
2018-07-08T03:10:31.983Z,99.9
2018-07-08T03:11:39.885Z,99.9
2018-07-08T03:12:47.766Z,99.9
2018-07-08T03:13:55.654Z,99.9
2018-07-08T03:15:03.544Z,99.9
2018-07-08T03:16:11.439Z,99.9
2018-07-08T03:17:19.317Z,99.9
2018-07-08T03:18:26.927Z,99.9
2018-07-08T03:19:34.891Z,99.9
2018-07-08T03:20:42.508Z,99.9
2018-07-08T03:21:50.398Z,99.9
2018-07-08T03:22:58.280Z,99.9
2018-07-08T03:24:06.172Z,99.9
2018-07-08T03:25:14.298Z,99.9
2018-07-08T03:26:22.188Z,99.9
2018-07-08T03:27:30.070Z,99.9
2018-07-08T03:28:37.958Z,99.9
2018-07-08T03:29:45.863Z,99.9
2018-07-08T03:30:53.752Z,99.9
2018-07-08T03:32:01.643Z,99.9
2018-07-08T03:33:09.537Z,99.9
2018-07-08T03:34:17.416Z,99.9
2018-07-08T03:35:25.309Z,99.9
2018-07-08T03:36:32.922Z,99.9
2018-07-08T03:37:40.809Z,99.9
2018-07-08T03:38:48.693Z,99.9
2018-07-08T03:39:56.583Z,99.9
2018-07-08T03:41:04.191Z,99.9
2018-07-08T03:42:12.084Z,99.9
2018-07-08T03:43:19.974Z,99.9
2018-07-08T03:44:27.861Z,99.9
2018-07-08T03:45:35.207Z,99.9
2018-07-08T03:46:43.092Z,99.9
2018-07-08T03:47:50.700Z,99.9
2018-07-08T03:48:58.587Z,99.9
2018-07-08T03:50:06.496Z,99.9
2018-07-08T03:51:14.385Z,99.9
2018-07-08T03:52:22.270Z,99.9
2018-07-08T03:53:30.177Z,99.9
2018-07-08T03:54:38.067Z,99.9
2018-07-08T03:55:45.952Z,99.9
2018-07-08T03:56:53.567Z,99.9
2018-07-08T03:58:01.178Z,99.9
2018-07-08T03:59:09.069Z,99.9
2018-07-08T04:00:16.960Z,99.9
2018-07-08T04:01:24.568Z,99.9
2018-07-08T04:02:32.453Z,99.9
2018-07-08T04:03:40.379Z,99.9
2018-07-08T04:04:48.275Z,99.9
2018-07-08T04:05:56.192Z,99.9
2018-07-08T04:07:04.332Z,99.9
2018-07-08T04:08:12.223Z,99.9
2018-07-08T04:09:20.102Z,99.9
2018-07-08T04:10:27.997Z,99.9
2018-07-08T04:11:35.879Z,99.9
2018-07-08T04:12:43.766Z,99.9
2018-07-08T04:13:51.669Z,99.9
2018-07-08T04:14:59.558Z,99.9
2018-07-08T04:16:07.450Z,99.9
2018-07-08T04:17:15.364Z,99.9
2018-07-08T04:18:22.696Z,99.9
2018-07-08T04:19:30.613Z,99.9
2018-07-08T04:20:38.498Z,99.9
2018-07-08T04:21:46.403Z,99.9
2018-07-08T04:22:54.293Z,99.9
2018-07-08T04:24:02.177Z,99.9
2018-07-08T04:25:10.086Z,99.9
2018-07-08T04:26:17.986Z,99.9
2018-07-08T04:27:25.890Z,99.9
2018-07-08T04:28:33.502Z,99.9
2018-07-08T04:29:41.383Z,99.9
2018-07-08T04:30:49.261Z,99.9
2018-07-08T04:31:56.876Z,99.9
2018-07-08T04:33:04.764Z,99.9
2018-07-08T04:34:12.649Z,99.9
2018-07-08T04:35:20.532Z,99.9
2018-07-08T04:36:28.418Z,99.9
2018-07-08T04:37:36.322Z,99.9
2018-07-08T04:38:44.207Z,99.9
2018-07-08T04:39:52.095Z,99.9
2018-07-08T04:40:59.985Z,99.9
2018-07-08T04:42:07.866Z,99.9
2018-07-08T04:43:15.482Z,99.9
2018-07-08T04:45:30.987Z,99.9
2018-07-08T04:46:38.870Z,99.9
2018-07-08T04:47:46.749Z,99.9
2018-07-08T04:48:54.634Z,99.9
2018-07-08T04:50:02.519Z,99.9
2018-07-08T04:51:10.408Z,99.9
2018-07-08T04:52:18.029Z,99.9
2018-07-08T04:53:25.916Z,99.9
2018-07-08T04:54:33.534Z,99.9
2018-07-08T04:55:41.419Z,99.9
2018-07-08T04:56:49.303Z,99.9
2018-07-08T04:57:57.193Z,99.9
2018-07-08T04:59:05.097Z,99.9
2018-07-08T05:00:12.984Z,99.9
2018-07-08T05:01:20.870Z,99.9
2018-07-08T05:02:28.766Z,99.9
2018-07-08T05:03:36.646Z,99.9
2018-07-08T05:04:44.540Z,99.9
2018-07-08T05:05:52.431Z,99.9
2018-07-08T05:07:00.041Z,99.9
2018-07-08T05:08:07.929Z,99.9
2018-07-08T05:09:15.814Z,99.9
2018-07-08T05:10:23.740Z,99.9
2018-07-08T05:11:31.729Z,99.9
2018-07-08T05:12:39.669Z,99.9
2018-07-08T05:13:47.280Z,99.9
2018-07-08T05:14:55.176Z,99.9
2018-07-08T05:16:03.099Z,99.9
2018-07-08T05:17:11.258Z,99.9
2018-07-08T05:18:18.828Z,99.9
2018-07-08T05:19:26.724Z,99.9
2018-07-08T05:20:34.335Z,99.9
2018-07-08T05:21:42.223Z,99.9
2018-07-08T05:22:49.839Z,99.9
2018-07-08T05:23:57.730Z,99.9
2018-07-08T05:25:05.622Z,99.9
2018-07-08T05:26:13.574Z,99.9
2018-07-08T05:27:21.467Z,99.9
2018-07-08T05:28:29.349Z,99.9
2018-07-08T05:29:36.975Z,99.9
2018-07-08T05:30:44.890Z,99.9
2018-07-08T05:31:52.776Z,99.9
2018-07-08T05:33:00.661Z,99.9
2018-07-08T05:34:08.567Z,99.9
2018-07-08T05:35:16.696Z,99.9
2018-07-08T05:36:25.068Z,99.9
2018-07-08T05:37:32.951Z,99.9
2018-07-08T05:38:40.839Z,99.9
2018-07-08T05:39:48.734Z,99.9
2018-07-08T05:40:56.626Z,99.9
2018-07-08T05:42:04.529Z,99.9
2018-07-08T05:43:12.416Z,99.9
2018-07-08T05:44:20.314Z,99.9
2018-07-08T05:45:28.200Z,99.9
2018-07-08T05:46:36.096Z,99.9
2018-07-08T05:47:43.989Z,99.9
2018-07-08T05:48:51.649Z,99.9
2018-07-08T05:49:59.548Z,99.9
2018-07-08T05:51:07.161Z,99.9
2018-07-08T05:52:15.053Z,99.9
2018-07-08T05:53:22.940Z,99.9
2018-07-08T05:54:30.827Z,99.9
2018-07-08T05:55:38.716Z,99.9
2018-07-08T05:56:46.330Z,99.9
2018-07-08T05:57:54.413Z,99.9
2018-07-08T05:59:02.327Z,98.4
2018-07-08T06:00:10.223Z,98.2
2018-07-08T06:01:18.114Z,98.8
2018-07-08T06:02:26.002Z,96.7
2018-07-08T06:03:33.896Z,97.6
2018-07-08T06:04:41.859Z,92.6
2018-07-08T06:05:49.691Z,90.7
2018-07-08T06:06:57.581Z,93.4
2018-07-08T06:08:05.466Z,87.6
2018-07-08T06:09:13.359Z,83.3
2018-07-08T06:10:21.264Z,90.5
2018-07-08T06:11:29.163Z,85.3
2018-07-08T06:12:37.059Z,85.6
2018-07-08T06:13:44.955Z,81.7
2018-07-08T06:14:52.876Z,88.8
2018-07-08T06:16:00.774Z,83.3
2018-07-08T06:17:08.660Z,78.7
2018-07-08T06:18:16.550Z,84.7
2018-07-08T06:19:24.464Z,69.4
2018-07-08T06:20:32.376Z,66.8
2018-07-08T06:21:40.276Z,71.9
2018-07-08T06:22:48.179Z,64.7
2018-07-08T06:23:56.087Z,67.5
2018-07-08T06:25:03.696Z,60.5
2018-07-08T06:26:11.585Z,59.9
2018-07-08T06:27:19.218Z,65.9
2018-07-08T06:28:27.109Z,60.1
2018-07-08T06:29:34.995Z,60.6
2018-07-08T06:30:42.882Z,61.7
2018-07-08T06:31:50.822Z,62.6
2018-07-08T06:32:58.892Z,60.3
2018-07-08T06:34:06.799Z,54.8
2018-07-08T06:35:14.695Z,64.9
2018-07-08T06:36:22.583Z,52.2
2018-07-08T06:37:30.472Z,51.7
2018-07-08T06:38:38.116Z,57.6
2018-07-08T06:39:45.740Z,47.5
2018-07-08T06:40:53.643Z,43
2018-07-08T06:42:01.276Z,53.8
2018-07-08T06:43:08.915Z,51
2018-07-08T06:44:16.811Z,41.1
2018-07-08T06:45:24.707Z,45.1
2018-07-08T06:46:32.325Z,48.3
2018-07-08T06:47:40.205Z,40.5
2018-07-08T06:48:48.122Z,39.8
2018-07-08T06:49:56.018Z,40.1
2018-07-08T06:51:03.904Z,36.8
2018-07-08T06:52:11.793Z,42.8
2018-07-08T06:53:19.684Z,37.8
2018-07-08T06:54:27.590Z,42.8
2018-07-08T06:55:35.478Z,37.7
2018-07-08T06:56:44.229Z,31.7
2018-07-08T06:57:52.196Z,37
2018-07-08T06:59:00.377Z,35.6
2018-07-08T07:00:07.993Z,38.7
2018-07-08T07:01:15.614Z,36
2018-07-08T07:02:23.246Z,37.3
2018-07-08T07:03:31.146Z,33.2
2018-07-08T07:04:39.074Z,37.2
2018-07-08T07:05:46.978Z,38.7
2018-07-08T07:06:54.869Z,40.3
2018-07-08T07:08:02.761Z,34.2
2018-07-08T07:09:10.680Z,31.6
2018-07-08T07:10:18.583Z,27.6
2018-07-08T07:11:26.472Z,31.4
2018-07-08T07:12:34.097Z,29.8
2018-07-08T07:13:41.991Z,30.1
2018-07-08T07:14:49.891Z,27.2
2018-07-08T07:15:57.787Z,27
2018-07-08T07:17:05.702Z,30.5
2018-07-08T07:18:13.597Z,30.7
2018-07-08T07:19:21.217Z,31.3
2018-07-08T07:20:28.832Z,25.4
2018-07-08T07:21:36.721Z,27.2
2018-07-08T07:22:44.632Z,25.8
2018-07-08T07:23:52.236Z,26.9
2018-07-08T07:25:00.123Z,33.4
2018-07-08T07:26:08.019Z,24.7
2018-07-08T07:27:15.628Z,28.3
2018-07-08T07:28:23.523Z,26.2
2018-07-08T07:29:31.416Z,26.7
2018-07-08T07:30:39.335Z,25.5
2018-07-08T07:31:47.225Z,26.7
2018-07-08T07:32:56.147Z,28.3
2018-07-08T07:34:04.043Z,27.5
2018-07-08T07:35:11.656Z,23.8
2018-07-08T07:36:19.553Z,24.8
2018-07-08T07:37:27.564Z,27.2
2018-07-08T07:38:35.328Z,22.8
2018-07-08T07:39:43.249Z,23.3
2018-07-08T07:40:51.143Z,19.6
2018-07-08T07:41:58.789Z,17.6
2018-07-08T07:43:06.728Z,20.1
2018-07-08T07:44:14.624Z,21.1
2018-07-08T07:45:22.545Z,21.3
2018-07-08T07:46:30.267Z,14.4
2018-07-08T07:47:38.159Z,14.7
2018-07-08T07:48:46.095Z,12.6
2018-07-08T07:49:53.721Z,16.3
2018-07-08T07:51:01.627Z,17.4
2018-07-08T07:52:09.528Z,18.1
2018-07-08T07:53:17.423Z,10.5
2018-07-08T07:54:25.320Z,15.4
2018-07-08T07:55:33.204Z,20.1
2018-07-08T07:56:40.829Z,13.2
2018-07-08T07:58:56.375Z,16.4
2018-07-08T08:00:04.330Z,15.2
2018-07-08T08:01:12.235Z,8.1
2018-07-08T08:02:20.128Z,3.3
2018-07-08T08:03:28.256Z,7.3
2018-07-08T08:04:36.144Z,7.8
2018-07-08T08:05:44.051Z,9.3
2018-07-08T08:06:51.936Z,9.4
2018-07-08T08:07:59.549Z,9.1
2018-07-08T08:09:07.442Z,6.3
2018-07-08T08:10:15.068Z,10.4
2018-07-08T08:11:22.963Z,7.4
2018-07-08T08:12:30.870Z,7.4
2018-07-08T08:13:38.766Z,3.5
2018-07-08T08:14:46.383Z,3.1
2018-07-08T08:15:54.275Z,5
2018-07-08T08:17:02.194Z,3.7
2018-07-08T08:18:10.295Z,6.6
2018-07-08T08:19:18.212Z,1
2018-07-08T08:20:26.106Z,4.8
2018-07-08T08:21:34.024Z,2
2018-07-08T08:22:41.950Z,4.2
2018-07-08T08:23:49.844Z,8.4
2018-07-08T08:24:57.738Z,8.5
2018-07-08T08:26:05.646Z,2.6
2018-07-08T08:27:13.561Z,1
2018-07-08T08:28:21.467Z,7.1
2018-07-08T08:29:29.353Z,5.6
2018-07-08T08:30:37.269Z,9.7
2018-07-08T08:31:45.160Z,7.5
2018-07-08T08:32:53.062Z,9.9
2018-07-08T08:34:00.671Z,6.9
2018-07-08T08:35:08.568Z,1
2018-07-08T08:36:16.186Z,1
2018-07-08T08:37:24.082Z,1
2018-07-08T08:38:31.982Z,6.2
2018-07-08T08:39:39.870Z,1
2018-07-08T08:40:47.834Z,2.8
2018-07-08T08:41:55.187Z,1
2018-07-08T08:43:03.084Z,1
2018-07-08T08:44:10.983Z,1
2018-07-08T08:46:41.444Z,1
2018-07-08T08:47:49.341Z,1
2018-07-08T08:48:57.475Z,1
2018-07-08T08:50:05.367Z,1
2018-07-08T08:51:13.486Z,1
2018-07-08T08:52:21.457Z,1
2018-07-08T08:53:29.422Z,1
2018-07-08T08:54:37.322Z,1
2018-07-08T08:55:44.667Z,1
2018-07-08T08:56:52.562Z,1
2018-07-08T08:58:00.458Z,1
2018-07-08T08:59:08.346Z,1
2018-07-08T09:00:15.975Z,1
2018-07-08T09:01:23.877Z,1
2018-07-08T09:02:31.768Z,1
2018-07-08T09:03:39.699Z,1
2018-07-08T09:04:47.664Z,1
2018-07-08T09:05:55.567Z,1
2018-07-08T09:07:03.681Z,1
2018-07-08T09:08:11.578Z,1
2018-07-08T09:09:19.485Z,1
2018-07-08T09:10:27.392Z,1
2018-07-08T09:11:35.288Z,1
2018-07-08T09:12:43.195Z,1
2018-07-08T09:13:51.087Z,1
2018-07-08T09:14:59.219Z,1
2018-07-08T09:16:07.118Z,1
2018-07-08T09:17:14.774Z,1
2018-07-08T09:18:22.822Z,1
2018-07-08T09:19:30.714Z,1
2018-07-08T09:20:38.607Z,1
2018-07-08T09:21:46.228Z,1
2018-07-08T09:22:54.128Z,1
2018-07-08T09:24:02.036Z,1
2018-07-08T09:25:10.134Z,1
2018-07-08T09:26:17.789Z,1
2018-07-08T09:27:25.691Z,1
2018-07-08T09:28:33.588Z,1
2018-07-08T09:29:41.209Z,1
2018-07-08T09:30:49.143Z,1
2018-07-08T09:31:57.028Z,1
2018-07-08T09:33:04.926Z,1
2018-07-08T09:34:12.829Z,1
2018-07-08T09:35:20.731Z,1
2018-07-08T09:36:28.623Z,1
2018-07-08T09:37:36.513Z,1
2018-07-08T09:38:44.536Z,1
2018-07-08T09:39:52.868Z,1
2018-07-08T09:41:00.771Z,1
2018-07-08T09:42:08.668Z,1
2018-07-08T09:43:16.560Z,1
2018-07-08T09:44:24.453Z,1
2018-07-08T09:45:32.351Z,1
2018-07-08T09:46:40.238Z,1
2018-07-08T09:47:48.133Z,1
2018-07-08T09:48:56.025Z,1
2018-07-08T09:50:03.916Z,1
2018-07-08T09:51:11.809Z,1
2018-07-08T09:52:20.382Z,1
2018-07-08T09:53:28.288Z,1
2018-07-08T09:54:36.186Z,1
2018-07-08T09:55:44.082Z,1
2018-07-08T09:56:51.983Z,1
2018-07-08T09:57:59.955Z,1
2018-07-08T09:59:08.014Z,1
2018-07-08T10:00:15.910Z,1
2018-07-08T10:01:23.804Z,1
2018-07-08T10:02:31.702Z,1
2018-07-08T10:03:39.600Z,1
2018-07-08T10:04:47.243Z,1
2018-07-08T10:05:55.173Z,1
2018-07-08T10:07:03.071Z,1
2018-07-08T10:08:10.987Z,1
2018-07-08T10:09:18.880Z,1
2018-07-08T10:10:26.788Z,1
2018-07-08T10:11:34.685Z,1
2018-07-08T10:12:42.595Z,1
2018-07-08T10:13:50.625Z,1
2018-07-08T10:14:58.912Z,1
2018-07-08T10:16:06.861Z,1
2018-07-08T10:17:14.537Z,1
2018-07-08T10:18:21.970Z,1
2018-07-08T10:19:30.055Z,1
2018-07-08T10:20:38.502Z,1
2018-07-08T10:21:46.396Z,1
2018-07-08T10:22:54.305Z,1
2018-07-08T10:24:01.920Z,1
2018-07-08T10:25:09.818Z,1
2018-07-08T10:26:17.777Z,1
2018-07-08T10:27:25.684Z,1
2018-07-08T10:28:33.576Z,1
2018-07-08T10:29:41.202Z,1
2018-07-08T10:30:49.099Z,1
2018-07-08T10:31:56.997Z,1
2018-07-08T10:33:04.891Z,1
2018-07-08T10:34:12.794Z,1
2018-07-08T10:35:20.846Z,1
2018-07-08T10:36:29.351Z,1
2018-07-08T10:38:59.551Z,1
2018-07-08T10:40:07.461Z,1
2018-07-08T10:41:15.412Z,1
2018-07-08T10:42:23.327Z,1
2018-07-08T10:43:31.229Z,1
2018-07-08T10:44:39.158Z,1
2018-07-08T10:45:47.063Z,1
2018-07-08T10:46:54.967Z,1
2018-07-08T10:48:02.873Z,1
2018-07-08T10:49:10.486Z,1
2018-07-08T10:50:18.404Z,1
2018-07-08T10:51:26.297Z,1
2018-07-08T10:52:34.189Z,1
2018-07-08T10:53:42.094Z,1
2018-07-08T10:54:49.589Z,1
2018-07-08T10:55:57.502Z,1
2018-07-08T10:57:05.406Z,1
2018-07-08T10:58:13.708Z,1
2018-07-08T10:59:21.603Z,1
2018-07-08T11:00:29.655Z,1
2018-07-08T11:01:37.549Z,1
2018-07-08T11:02:45.227Z,1
2018-07-08T11:03:53.144Z,1
2018-07-08T11:05:01.038Z,1
2018-07-08T11:06:08.934Z,1
2018-07-08T11:07:16.555Z,1
2018-07-08T11:08:23.899Z,1
2018-07-08T11:09:31.794Z,1
2018-07-08T11:10:40.343Z,1
2018-07-08T11:11:50.203Z,1
2018-07-08T11:12:58.120Z,1
2018-07-08T11:14:06.024Z,1
2018-07-08T11:15:13.918Z,1
2018-07-08T11:16:21.836Z,1
2018-07-08T11:17:29.457Z,1
2018-07-08T11:18:37.376Z,1
2018-07-08T11:19:45.274Z,1
2018-07-08T11:20:53.198Z,1
2018-07-08T11:22:01.249Z,1
2018-07-08T11:23:09.148Z,1
2018-07-08T11:24:17.836Z,1
2018-07-08T11:25:25.749Z,1
2018-07-08T11:26:33.650Z,1
2018-07-08T11:27:41.550Z,1
2018-07-08T11:28:49.454Z,1
2018-07-08T11:29:57.367Z,1
2018-07-08T11:31:05.270Z,1
2018-07-08T11:32:13.168Z,1
2018-07-08T11:33:21.067Z,1
2018-07-08T11:34:28.716Z,1
2018-07-08T11:35:36.343Z,1
2018-07-08T11:36:43.974Z,1
2018-07-08T11:37:52.077Z,1
2018-07-08T11:38:59.984Z,1
2018-07-08T11:40:07.817Z,1
2018-07-08T11:41:15.720Z,1
2018-07-08T11:42:23.619Z,1
2018-07-08T11:43:31.518Z,1
2018-07-08T11:44:39.630Z,1
2018-07-08T11:45:47.537Z,1
2018-07-08T11:46:55.466Z,1
2018-07-08T11:48:03.361Z,1
2018-07-08T11:49:11.284Z,1
2018-07-08T11:50:19.215Z,1
2018-07-08T11:51:27.126Z,1
2018-07-08T11:52:35.031Z,1
2018-07-08T11:53:44.395Z,1
2018-07-08T11:54:52.292Z,1
2018-07-08T11:56:00.191Z,1
2018-07-08T11:57:07.822Z,1
2018-07-08T11:58:15.718Z,1
2018-07-08T11:59:23.614Z,1
2018-07-08T12:00:31.531Z,1
2018-07-08T12:01:39.435Z,1
2018-07-08T12:02:47.339Z,1
2018-07-08T12:03:55.232Z,1
2018-07-08T12:05:03.142Z,1
2018-07-08T12:06:11.204Z,1
2018-07-08T12:07:19.096Z,1
2018-07-08T12:08:27.011Z,1
2018-07-08T12:09:35.069Z,1
2018-07-08T12:10:42.963Z,1
2018-07-08T12:11:50.865Z,1
2018-07-08T12:12:58.766Z,1
2018-07-08T12:14:06.673Z,1
2018-07-08T12:15:14.600Z,1
2018-07-08T12:16:22.506Z,1
2018-07-08T12:17:30.408Z,1
2018-07-08T12:18:38.316Z,1
2018-07-08T12:19:46.670Z,1
2018-07-08T12:20:54.622Z,1
2018-07-08T12:22:02.522Z,1
2018-07-08T12:23:10.431Z,1
2018-07-08T12:24:18.326Z,1
2018-07-08T12:25:26.235Z,1
2018-07-08T12:26:34.124Z,1
2018-07-08T12:27:41.924Z,1
2018-07-08T12:28:50.228Z,1
2018-07-08T12:29:58.141Z,1
2018-07-08T12:31:05.772Z,1
2018-07-08T12:32:13.672Z,1
2018-07-08T12:33:21.571Z,1
2018-07-08T12:34:29.469Z,1
2018-07-08T12:35:37.382Z,1
2018-07-08T12:36:45.327Z,1
2018-07-08T12:37:53.360Z,1
2018-07-08T12:39:00.707Z,1
2018-07-08T12:40:08.629Z,1
2018-07-08T12:41:16.254Z,1
2018-07-08T12:42:24.150Z,1
2018-07-08T12:43:32.046Z,1
2018-07-08T12:44:39.834Z,1
2018-07-08T12:45:48.803Z,1
2018-07-08T12:46:56.693Z,1
2018-07-08T12:48:05.410Z,1
2018-07-08T12:49:13.345Z,1
2018-07-08T12:50:21.240Z,1
2018-07-08T12:51:29.137Z,1
2018-07-08T12:52:37.041Z,1
2018-07-08T12:53:44.949Z,1
2018-07-08T12:54:52.876Z,1
2018-07-08T12:56:00.800Z,1
2018-07-08T12:57:08.702Z,1
2018-07-08T12:58:16.326Z,1
2018-07-08T12:59:24.229Z,1
2018-07-08T13:00:32.127Z,1
2018-07-08T13:01:40.025Z,1
2018-07-08T13:02:47.656Z,1
2018-07-08T13:03:55.569Z,1
2018-07-08T13:05:03.483Z,1
2018-07-08T13:06:11.427Z,1
2018-07-08T13:07:19.359Z,1
2018-07-08T13:08:27.258Z,1
2018-07-08T13:09:34.899Z,1
2018-07-08T13:10:42.810Z,1
2018-07-08T13:11:50.739Z,1
2018-07-08T13:12:58.637Z,1
2018-07-08T13:14:06.568Z,1
2018-07-08T13:15:14.459Z,1
2018-07-08T13:16:22.357Z,1
2018-07-08T13:17:30.265Z,1
2018-07-08T13:18:38.171Z,1
2018-07-08T13:19:46.079Z,1
2018-07-08T13:20:53.713Z,1
2018-07-08T13:22:01.624Z,1
2018-07-08T13:23:09.515Z,1
2018-07-08T13:24:17.147Z,1
2018-07-08T13:25:25.041Z,1
2018-07-08T13:26:32.990Z,1
2018-07-08T13:27:40.737Z,1
2018-07-08T13:28:48.637Z,1
2018-07-08T13:29:56.269Z,1
2018-07-08T13:31:04.165Z,1
2018-07-08T13:32:12.352Z,1
2018-07-08T13:33:20.632Z,1
2018-07-08T13:34:28.271Z,1
2018-07-08T13:35:36.174Z,1
2018-07-08T13:36:43.815Z,1
2018-07-08T13:37:51.720Z,1
2018-07-08T13:38:59.692Z,1
2018-07-08T13:40:08.065Z,1
2018-07-08T13:41:15.969Z,1
2018-07-08T13:42:23.871Z,1
2018-07-08T13:43:31.805Z,1
2018-07-08T13:44:39.434Z,1
2018-07-08T13:45:47.056Z,1
2018-07-08T13:46:54.956Z,1
2018-07-08T13:48:02.867Z,1
2018-07-08T13:49:10.769Z,1
2018-07-08T13:50:18.408Z,1
2018-07-08T13:51:26.030Z,1
2018-07-08T13:52:33.939Z,1
2018-07-08T13:53:41.845Z,1
2018-07-08T13:54:49.742Z,1
2018-07-08T13:55:57.859Z,1
2018-07-08T13:57:05.962Z,1
2018-07-08T13:58:13.865Z,1
2018-07-08T13:59:21.765Z,1
2018-07-08T14:00:29.675Z,1
2018-07-08T14:01:37.302Z,1
2018-07-08T14:02:45.210Z,1
2018-07-08T14:03:53.124Z,1
2018-07-08T14:05:01.025Z,1
2018-07-08T14:06:09.184Z,1
2018-07-08T14:07:17.065Z,1
2018-07-08T14:08:24.981Z,1
2018-07-08T14:09:32.609Z,1
2018-07-08T14:10:40.547Z,1
2018-07-08T14:11:48.447Z,1
2018-07-08T14:12:56.068Z,1
2018-07-08T14:14:03.967Z,1
2018-07-08T14:15:11.883Z,1
2018-07-08T14:16:19.783Z,1
2018-07-08T14:17:27.696Z,1
2018-07-08T14:18:35.613Z,1
2018-07-08T14:19:43.243Z,1
2018-07-08T14:20:51.271Z,1
2018-07-08T14:21:59.591Z,1
2018-07-08T14:23:07.490Z,1
2018-07-08T14:24:15.152Z,1
2018-07-08T14:25:23.059Z,1
2018-07-08T14:26:30.878Z,1
2018-07-08T14:27:38.783Z,1
2018-07-08T14:28:46.691Z,1
2018-07-08T14:29:54.602Z,1
2018-07-08T14:31:02.511Z,1
2018-07-08T14:32:10.440Z,1
2018-07-08T14:33:18.337Z,1
2018-07-08T14:34:26.238Z,1
2018-07-08T14:35:33.889Z,1
2018-07-08T14:36:41.797Z,1
2018-07-08T14:37:49.713Z,1
2018-07-08T14:38:57.610Z,1
2018-07-08T14:40:05.233Z,1
2018-07-08T14:41:12.601Z,1
2018-07-08T14:42:20.222Z,1
2018-07-08T14:43:28.125Z,1
2018-07-08T14:44:36.063Z,1
2018-07-08T14:45:43.765Z,1
2018-07-08T14:46:51.691Z,1
2018-07-08T14:47:59.635Z,1
2018-07-08T14:49:07.538Z,1
2018-07-08T14:50:15.438Z,1
2018-07-08T14:51:23.342Z,1
2018-07-08T14:52:31.247Z,1
2018-07-08T14:53:39.156Z,1
2018-07-08T14:54:47.060Z,1
2018-07-08T14:55:54.965Z,1
2018-07-08T14:57:02.859Z,1
2018-07-08T14:58:10.755Z,1
2018-07-08T14:59:18.850Z,1
2018-07-08T15:00:26.799Z,1
2018-07-08T15:01:34.686Z,1
2018-07-08T15:02:42.618Z,1
2018-07-08T15:03:50.522Z,1
2018-07-08T15:04:58.598Z,1
2018-07-08T15:06:06.496Z,1
2018-07-08T15:07:14.392Z,1
2018-07-08T15:08:22.294Z,1
2018-07-08T15:09:30.190Z,1
2018-07-08T15:10:38.091Z,1
2018-07-08T15:11:45.988Z,1
2018-07-08T15:12:53.885Z,1
2018-07-08T15:14:01.797Z,1
2018-07-08T15:15:09.689Z,1
2018-07-08T15:16:17.597Z,1
2018-07-08T15:17:25.630Z,1
2018-07-08T15:18:33.525Z,1
2018-07-08T15:19:41.428Z,1
2018-07-08T15:20:49.580Z,1
2018-07-08T15:21:57.656Z,1
2018-07-08T15:23:05.562Z,1
2018-07-08T15:24:13.462Z,1
2018-07-08T15:25:21.102Z,1
2018-07-08T15:26:29.020Z,1
2018-07-08T15:27:36.374Z,1
2018-07-08T15:28:44.272Z,1
2018-07-08T15:29:52.179Z,1
2018-07-08T15:31:00.088Z,1
2018-07-08T15:32:07.990Z,1
2018-07-08T15:33:15.888Z,1
2018-07-08T15:34:23.513Z,1
2018-07-08T15:35:31.422Z,1
2018-07-08T15:36:39.323Z,1
2018-07-08T15:37:47.235Z,1
2018-07-08T15:38:54.868Z,1
2018-07-08T15:40:02.772Z,1
2018-07-08T15:41:10.397Z,1
2018-07-08T15:42:18.297Z,1
2018-07-08T15:43:26.238Z,1
2018-07-08T15:44:34.139Z,1
2018-07-08T15:45:42.052Z,1
2018-07-08T15:46:50.006Z,1
2018-07-08T15:47:57.967Z,1
2018-07-08T15:49:05.871Z,1
2018-07-08T15:50:13.773Z,1
2018-07-08T15:51:21.676Z,1
2018-07-08T15:52:29.577Z,1
2018-07-08T15:53:37.707Z,1
2018-07-08T15:54:45.602Z,1
2018-07-08T15:55:53.507Z,1